createdAt,value
2019-05-10T03:40:43.796Z,97333.82
2019-05-10T03:45:44.967Z,97340.14
2019-05-10T03:50:46.296Z,97343.20
2019-05-10T03:55:47.174Z,97364.11
2019-05-10T04:00:48.062Z,97372.77
2019-05-10T04:05:48.926Z,97383.44
2019-05-10T04:10:50.708Z,97394.52
2019-05-10T04:15:53.486Z,97399.25
2019-05-10T04:20:54.468Z,97414.66
2019-05-10T04:25:56.807Z,97418.73
2019-05-10T04:30:57.676Z,97421.17
2019-05-10T04:35:59.567Z,97417.84
2019-05-10T04:41:01.344Z,97422.10
2019-05-10T04:46:02.716Z,97423.01
2019-05-10T04:51:05.303Z,97420.52
2019-05-10T04:56:06.194Z,97427.55
2019-05-10T05:01:07.375Z,97427.55
2019-05-10T05:06:08.337Z,97437.27
2019-05-10T05:11:09.222Z,97431.45
2019-05-10T05:16:10.104Z,97441.36
2019-05-10T05:21:11.073Z,97443.33
2019-05-10T05:26:11.945Z,97445.56
2019-05-10T05:31:12.843Z,97444.64
2019-05-10T05:36:13.714Z,97452.87
2019-05-10T05:41:14.588Z,97455.81
2019-05-10T05:46:15.469Z,97453.23
2019-05-10T05:51:16.445Z,97462.49
2019-05-10T05:56:17.343Z,97461.55
2019-05-10T06:01:26.212Z,97462.09
2019-05-10T06:06:23.260Z,97466.20
2019-05-10T06:11:23.893Z,97469.94
2019-05-10T06:16:24.767Z,97484.22
2019-05-10T06:21:26.847Z,97480.32
2019-05-10T06:26:28.782Z,97477.36
2019-05-10T06:31:30.046Z,97489.06
2019-05-10T06:36:30.873Z,97486.64
2019-05-10T06:41:32.653Z,97489.46
2019-05-10T06:46:33.744Z,97489.26
2019-05-10T06:51:34.619Z,97493.32
2019-05-10T06:56:35.507Z,97496.73
2019-05-10T07:01:38.271Z,97506.42
2019-05-10T07:06:39.179Z,97504.75
2019-05-10T07:11:40.036Z,97505.91
2019-05-10T07:16:40.917Z,97504.47
2019-05-10T07:21:44.752Z,97511.38
2019-05-10T07:26:44.681Z,97516.17
2019-05-10T07:31:45.570Z,97513.08
2019-05-10T07:36:46.551Z,97518.16
2019-05-10T07:41:47.437Z,97519.61
2019-05-10T07:46:53.844Z,97529.90
2019-05-10T07:51:51.234Z,97528.20
2019-05-10T07:56:52.137Z,97535.03
2019-05-10T08:01:53.013Z,97538.31
2019-05-10T08:06:53.887Z,97551.48
2019-05-10T08:12:03.191Z,97544.72
2019-05-10T08:17:01.918Z,97545.36
2019-05-10T08:22:02.019Z,97545.52
2019-05-10T08:27:09.746Z,97552.44
2019-05-10T08:32:06.452Z,97557.30
2019-05-10T08:37:07.325Z,97552.98
2019-05-10T08:42:27.603Z,97551.08
2019-05-10T08:47:15.753Z,97547.08
2019-05-10T08:52:13.916Z,97544.95
2019-05-10T09:02:34.016Z,97552.47
2019-05-10T09:07:39.023Z,97557.13
2019-05-10T09:12:41.818Z,97554.37
2019-05-10T09:17:42.853Z,97552.56
2019-05-10T09:22:43.388Z,97556.75
2019-05-10T09:27:44.288Z,97561.08
2019-05-10T09:32:45.162Z,97559.72
2019-05-10T09:37:47.673Z,97559.52
2019-05-10T09:42:48.912Z,97557.73
2019-05-10T09:47:52.880Z,97566.71
2019-05-10T09:52:53.342Z,97568.66
2019-05-10T09:57:54.224Z,97569.64
2019-05-10T10:02:56.653Z,97572.56
2019-05-10T10:07:57.934Z,97570.20
2019-05-10T10:13:08.515Z,97575.45
2019-05-10T10:18:02.602Z,97580.80
2019-05-10T10:23:03.476Z,97592.38
2019-05-10T10:28:08.203Z,97602.05
2019-05-10T10:33:11.354Z,97617.77
2019-05-10T10:38:10.058Z,97633.57
2019-05-10T10:43:10.916Z,97646.88
2019-05-10T10:48:13.031Z,97668.11
2019-05-10T10:53:14.160Z,97667.73
2019-05-10T10:58:15.067Z,97668.14
2019-05-10T11:03:15.943Z,97673.15
2019-05-10T11:08:16.823Z,97662.34
2019-05-10T11:13:20.483Z,97668.27
2019-05-10T11:18:21.644Z,97666.03
2019-05-10T11:23:24.496Z,97671.02
2019-05-10T11:28:32.509Z,97671.35
2019-05-10T11:33:32.848Z,97673.25
2019-05-10T11:38:31.987Z,97668.25
2019-05-10T11:43:32.919Z,97668.58
2019-05-10T11:48:37.183Z,97661.56
2019-05-10T11:53:36.594Z,97670.64
2019-05-10T11:58:45.030Z,97677.78
2019-05-10T12:03:42.402Z,97679.08
2019-05-10T12:08:43.097Z,97675.64
2019-05-10T12:13:44.064Z,97673.55
2019-05-10T12:19:00.774Z,97670.16
2019-05-10T12:23:56.298Z,97669.28
2019-05-10T12:29:02.759Z,97652.83
2019-05-10T12:34:02.507Z,97644.25
2019-05-10T12:39:01.768Z,97643.70
2019-05-10T12:44:07.245Z,97640.48
2019-05-10T12:49:06.176Z,97644.03
2019-05-10T12:54:07.032Z,97650.55
2019-05-10T12:59:07.920Z,97646.64
2019-05-10T13:04:14.548Z,97649.11
2019-05-10T13:09:11.692Z,97630.09
2019-05-10T13:14:12.573Z,97625.81
2019-05-10T13:19:19.871Z,97628.79
2019-05-10T13:24:16.332Z,97623.78
2019-05-10T13:29:17.208Z,97626.73
2019-05-10T13:34:18.081Z,97618.66
2019-05-10T13:39:24.819Z,97610.95
2019-05-10T13:44:21.724Z,97617.70
2019-05-10T13:49:22.595Z,97629.31
2019-05-10T13:54:23.480Z,97640.52
2019-05-10T13:59:27.266Z,97689.89
2019-05-10T14:04:34.005Z,97724.80
2019-05-10T14:09:32.718Z,97723.45
2019-05-10T14:14:33.588Z,97714.34
2019-05-10T14:19:35.996Z,97715.70
2019-05-10T14:24:46.702Z,97714.09
2019-05-10T14:29:46.360Z,97708.04
2019-05-10T14:34:49.048Z,97709.61
2019-05-10T14:39:52.402Z,97698.33
2019-05-10T14:45:01.761Z,97710.81
2019-05-10T14:50:04.975Z,97712.80
2019-05-10T14:55:06.320Z,97712.48
2019-05-10T15:00:07.680Z,97707.85
2019-05-10T15:05:15.980Z,97704.00
2019-05-10T15:10:11.813Z,97692.98
2019-05-10T15:15:12.853Z,97689.89
2019-05-10T15:20:14.365Z,97686.45
2019-05-10T15:25:15.639Z,97684.56
2019-05-10T15:30:16.813Z,97687.52
2019-05-10T15:35:17.691Z,97676.75
2019-05-10T15:40:19.571Z,97678.38
2019-05-10T15:45:20.552Z,97679.66
2019-05-10T15:50:21.966Z,97671.98
2019-05-10T15:55:27.261Z,97674.89
2019-05-10T16:00:31.451Z,97678.45
2019-05-10T16:05:42.384Z,97679.73
2019-05-10T16:10:38.766Z,97684.20
2019-05-10T16:15:34.067Z,97691.64
2019-05-10T16:20:37.080Z,97685.66
2019-05-10T16:25:42.935Z,97683.52
2019-05-10T16:30:41.398Z,97687.14
2019-05-10T16:35:44.085Z,97687.36
2019-05-10T16:40:57.298Z,97683.78
2019-05-10T16:45:47.911Z,97685.73
2019-05-10T16:50:48.763Z,97683.41
2019-05-10T16:55:49.632Z,97695.63
2019-05-10T17:00:50.531Z,97688.12
2019-05-10T17:05:53.815Z,97692.28
2019-05-10T17:10:54.548Z,97703.44
2019-05-10T17:15:59.028Z,97702.68
2019-05-10T17:21:00.029Z,97704.66
2019-05-10T17:26:00.905Z,97696.94
2019-05-10T17:31:07.909Z,97706.22
2019-05-10T17:36:08.313Z,97711.82
2019-05-10T17:41:09.527Z,97719.41
2019-05-10T17:46:12.645Z,97724.30
2019-05-10T17:51:14.196Z,97728.31
2019-05-10T17:56:15.985Z,97727.30
2019-05-10T18:01:17.848Z,97738.33
2019-05-10T18:06:24.057Z,97738.70
2019-05-10T18:11:22.025Z,97740.38
2019-05-10T18:16:22.992Z,97743.39
2019-05-10T18:21:25.009Z,97742.00
2019-05-10T18:26:26.291Z,97748.66
2019-05-10T18:31:27.964Z,97745.13
2019-05-10T18:36:50.412Z,97760.80
2019-05-10T18:41:35.468Z,97758.58
2019-05-10T18:46:37.716Z,97764.47
2019-05-10T18:51:38.794Z,97764.67
2019-05-10T18:56:39.918Z,97771.33
2019-05-10T19:01:42.478Z,97779.41
2019-05-10T19:06:49.322Z,97785.41
2019-05-10T19:11:47.068Z,97793.67
2019-05-10T19:16:48.306Z,97803.88
2019-05-10T19:21:49.263Z,97808.97
2019-05-10T19:26:50.141Z,97822.32
2019-05-10T19:31:51.611Z,97826.27
2019-05-10T19:36:52.621Z,97817.13
2019-05-10T19:42:02.906Z,97834.16
2019-05-10T19:46:56.804Z,97812.63
2019-05-10T19:51:59.966Z,97836.30
2019-05-10T19:57:02.821Z,97838.52
2019-05-10T20:02:03.794Z,97846.64
2019-05-10T20:07:04.669Z,97848.45
2019-05-10T20:12:05.540Z,97848.23
2019-05-10T20:17:06.462Z,97847.78
2019-05-10T20:22:07.331Z,97841.96
2019-05-10T20:27:08.203Z,97840.73
2019-05-10T20:32:09.100Z,97830.59
2019-05-10T20:37:10.095Z,97840.84
2019-05-10T20:42:11.000Z,97843.02
2019-05-10T20:47:11.870Z,97866.64
2019-05-10T20:52:13.052Z,97851.65
2019-05-10T20:57:13.934Z,97849.43
2019-05-10T21:02:14.873Z,97839.71
2019-05-10T21:07:15.770Z,97856.42
2019-05-10T21:12:16.904Z,97844.52
2019-05-10T21:17:17.783Z,97841.66
2019-05-10T21:22:18.681Z,97841.09
2019-05-10T21:27:19.952Z,97846.44
2019-05-10T21:32:20.860Z,97834.21
2019-05-10T21:37:21.740Z,97835.83
2019-05-10T21:42:22.655Z,97838.04
2019-05-10T21:47:23.601Z,97836.07
2019-05-10T21:52:24.485Z,97841.26
2019-05-10T21:57:25.368Z,97825.25
2019-05-10T22:02:26.508Z,97827.25
2019-05-10T22:07:28.287Z,97831.19
2019-05-10T22:12:30.543Z,97822.59
2019-05-10T22:17:33.244Z,97828.13
2019-05-10T22:22:34.534Z,97814.95
2019-05-10T22:27:35.425Z,97814.95
2019-05-10T22:32:36.704Z,97810.99
2019-05-10T22:37:37.623Z,97809.62
2019-05-10T22:42:38.516Z,97809.62
2019-05-10T22:47:39.371Z,97799.95
2019-05-10T22:52:40.399Z,97794.95
2019-05-10T22:57:41.758Z,97793.72
2019-05-10T23:02:42.621Z,97788.56
2019-05-10T23:07:43.533Z,97787.91
2019-05-10T23:12:44.427Z,97797.81
2019-05-10T23:17:45.308Z,97780.55
2019-05-10T23:22:46.175Z,97772.27
2019-05-10T23:27:47.064Z,97772.76
2019-05-10T23:32:47.935Z,97780.55
2019-05-10T23:37:48.824Z,97785.80
2019-05-10T23:42:49.694Z,97795.39
2019-05-10T23:47:50.554Z,97800.32
2019-05-10T23:52:51.455Z,97784.86
2019-05-10T23:57:52.436Z,97790.16
